createdAt,value
2023-01-17T00:00:26.547Z,50.83
2023-01-17T00:03:15.062Z,57.23
2023-01-17T00:06:23.218Z,55.77
2023-01-17T00:09:31.866Z,51.83
2023-01-17T00:12:21.404Z,60.03
2023-01-17T00:15:11.297Z,58.70
2023-01-17T00:18:00.218Z,55.00
2023-01-17T00:21:08.164Z,60.70
2023-01-17T00:24:13.952Z,49.70
2023-01-17T00:27:14.760Z,61.40
2023-01-17T00:30:02.151Z,59.73
2023-01-17T00:32:49.651Z,60.70
2023-01-17T00:35:36.976Z,52.43
2023-01-17T00:38:25.993Z,50.87
2023-01-17T00:41:14.848Z,56.27
2023-01-17T00:44:21.859Z,52.07
2023-01-17T00:47:27.860Z,54.57
2023-01-17T00:50:34.376Z,56.87
2023-01-17T00:53:40.189Z,53.20
2023-01-17T00:56:46.340Z,51.83
2023-01-17T00:59:54.231Z,50.47
2023-01-17T01:03:00.437Z,50.97
2023-01-17T01:06:06.525Z,51.50
2023-01-17T01:09:13.096Z,50.73
2023-01-17T01:12:19.151Z,60.07
2023-01-17T01:15:27.806Z,53.10
2023-01-17T01:18:33.697Z,50.40
2023-01-17T01:21:39.196Z,54.63
2023-01-17T01:24:44.909Z,51.83
2023-01-17T01:27:50.927Z,61.20
2023-01-17T01:30:58.016Z,54.20
2023-01-17T01:33:46.562Z,57.23
2023-01-17T01:36:35.010Z,55.33
2023-01-17T01:39:23.479Z,53.53
2023-01-17T01:42:16.294Z,51.40
2023-01-17T01:45:16.774Z,54.03
2023-01-17T01:48:21.197Z,53.27
2023-01-17T01:51:13.194Z,53.47
2023-01-17T01:54:05.947Z,52.50
2023-01-17T01:56:57.304Z,57.57
2023-01-17T01:59:50.565Z,62.50
2023-01-17T02:02:40.030Z,55.07
2023-01-17T02:05:30.394Z,58.87
2023-01-17T02:08:21.559Z,54.17
2023-01-17T02:11:10.546Z,64.47
2023-01-17T02:13:59.183Z,59.20
2023-01-17T02:17:03.113Z,47.90
2023-01-17T02:20:36.796Z,49.87
2023-01-17T02:24:10.281Z,49.57
2023-01-17T02:27:07.225Z,48.67
2023-01-17T02:30:36.869Z,53.80
2023-01-17T02:33:30.189Z,45.23
2023-01-17T02:36:24.873Z,44.77
2023-01-17T02:39:19.881Z,53.03
2023-01-17T02:42:15.612Z,53.07
2023-01-17T02:45:04.824Z,46.30
2023-01-17T02:47:54.723Z,43.47
2023-01-17T02:50:57.593Z,48.17
2023-01-17T02:54:02.180Z,49.90
2023-01-17T02:57:02.700Z,51.77
2023-01-17T03:00:04.615Z,46.17
2023-01-17T03:03:01.580Z,50.27
2023-01-17T03:05:55.418Z,52.53
2023-01-17T03:08:47.291Z,60.20
2023-01-17T03:11:35.914Z,55.47
2023-01-17T03:14:24.445Z,52.57
2023-01-17T03:17:13.120Z,54.23
2023-01-17T03:20:03.003Z,58.97
2023-01-17T03:22:51.439Z,51.40
2023-01-17T03:25:40.027Z,54.17
2023-01-17T03:28:28.502Z,55.27
2023-01-17T03:31:18.006Z,51.20
2023-01-17T03:34:06.601Z,56.90
2023-01-17T03:36:56.527Z,58.00
2023-01-17T03:39:45.014Z,48.30
2023-01-17T03:42:33.872Z,55.73
2023-01-17T03:45:22.444Z,55.40
2023-01-17T03:48:10.987Z,57.67
2023-01-17T03:51:00.103Z,54.80
2023-01-17T03:53:50.688Z,50.47
2023-01-17T03:56:39.183Z,52.80
2023-01-17T03:59:27.664Z,47.60
2023-01-17T04:02:16.282Z,54.37
2023-01-17T04:05:05.371Z,52.33
2023-01-17T04:07:53.848Z,52.40
2023-01-17T04:10:43.622Z,48.77
2023-01-17T04:13:32.097Z,54.00
2023-01-17T04:16:21.862Z,54.13
2023-01-17T04:19:12.178Z,46.00
2023-01-17T04:22:00.695Z,55.73
2023-01-17T04:24:49.248Z,46.63
2023-01-17T04:27:39.074Z,44.70
2023-01-17T04:30:29.381Z,48.47
2023-01-17T04:33:18.320Z,47.67
2023-01-17T04:36:07.739Z,50.57
2023-01-17T04:38:56.295Z,50.60
2023-01-17T04:41:45.016Z,50.77
2023-01-17T04:44:34.928Z,51.63
2023-01-17T04:47:23.525Z,48.77
2023-01-17T04:50:12.746Z,45.37
2023-01-17T04:53:01.806Z,47.33
2023-01-17T04:55:50.288Z,51.13
2023-01-17T04:58:38.846Z,53.77
2023-01-17T05:01:28.843Z,49.00
2023-01-17T05:04:17.514Z,53.47
2023-01-17T05:07:06.275Z,49.87
2023-01-17T05:09:54.729Z,45.87
2023-01-17T05:12:43.241Z,51.03
2023-01-17T05:15:32.206Z,52.63
2023-01-17T05:18:22.133Z,48.90
2023-01-17T05:21:10.664Z,52.38
2023-01-17T05:23:59.279Z,49.97
2023-01-17T05:26:54.662Z,49.37
2023-01-17T05:29:43.386Z,47.90
2023-01-17T05:32:31.948Z,59.50
2023-01-17T05:35:24.136Z,52.27
2023-01-17T05:38:12.681Z,50.57
2023-01-17T05:41:01.612Z,50.63
2023-01-17T05:43:50.118Z,57.80
2023-01-17T05:46:38.834Z,49.20
2023-01-17T05:49:27.335Z,47.70
2023-01-17T05:52:17.266Z,52.53
2023-01-17T05:55:07.503Z,45.00
2023-01-17T05:57:56.656Z,52.17
2023-01-17T06:00:45.279Z,44.90
2023-01-17T06:03:33.872Z,50.53
2023-01-17T06:06:22.701Z,52.00
2023-01-17T06:09:12.878Z,50.30
2023-01-17T06:12:01.536Z,45.10
2023-01-17T06:14:50.097Z,47.17
2023-01-17T06:17:38.666Z,51.43
2023-01-17T06:20:27.409Z,55.23
2023-01-17T06:23:16.435Z,56.33
2023-01-17T06:26:08.429Z,45.83
2023-01-17T06:28:56.907Z,49.73
2023-01-17T06:31:45.634Z,51.37
2023-01-17T06:34:34.174Z,48.30
2023-01-17T06:37:22.700Z,49.03
2023-01-17T06:40:12.734Z,50.83
2023-01-17T06:43:03.396Z,53.37
2023-01-17T06:45:52.051Z,51.17
2023-01-17T06:48:40.541Z,50.23
2023-01-17T06:51:29.066Z,52.10
2023-01-17T06:54:18.920Z,50.40
2023-01-17T06:57:07.383Z,54.07
2023-01-17T06:59:57.270Z,55.10
2023-01-17T07:02:47.927Z,47.10
2023-01-17T07:05:36.590Z,48.80
2023-01-17T07:08:25.148Z,50.33
2023-01-17T07:11:13.641Z,51.00
2023-01-17T07:14:02.046Z,42.93
2023-01-17T07:16:52.143Z,46.07
2023-01-17T07:19:40.654Z,51.80
2023-01-17T07:22:29.292Z,53.10
2023-01-17T07:25:18.013Z,50.23
2023-01-17T07:28:06.493Z,53.10
2023-01-17T07:30:55.708Z,50.07
2023-01-17T07:33:45.749Z,50.20
2023-01-17T07:36:34.195Z,49.10
2023-01-17T07:39:22.749Z,45.93
2023-01-17T07:42:11.243Z,58.90
2023-01-17T07:45:00.672Z,51.10
2023-01-17T07:47:50.121Z,51.53
2023-01-17T07:50:40.413Z,54.60
2023-01-17T07:53:30.857Z,52.50
2023-01-17T07:56:19.387Z,48.17
2023-01-17T07:59:07.902Z,54.87
2023-01-17T08:01:56.409Z,52.13
2023-01-17T08:04:45.099Z,49.87
2023-01-17T08:07:35.097Z,50.97
2023-01-17T08:10:23.848Z,54.67
2023-01-17T08:13:12.349Z,50.17
2023-01-17T08:16:02.518Z,50.73
2023-01-17T08:18:51.088Z,57.63
2023-01-17T08:21:39.643Z,58.73
2023-01-17T08:24:29.786Z,63.03
2023-01-17T08:27:18.405Z,55.30
2023-01-17T08:30:08.459Z,53.23
2023-01-17T08:32:57.126Z,49.33
2023-01-17T08:35:53.477Z,51.93
2023-01-17T08:38:42.028Z,52.70
2023-01-17T08:41:32.290Z,54.93
2023-01-17T08:44:20.930Z,55.80
2023-01-17T08:47:09.484Z,60.20
2023-01-17T08:49:59.512Z,59.13
2023-01-17T08:52:49.505Z,55.30
2023-01-17T08:55:40.939Z,59.53
2023-01-17T08:58:33.028Z,55.70
2023-01-17T09:01:21.713Z,54.23
2023-01-17T09:04:10.674Z,52.10
2023-01-17T09:06:59.316Z,53.70
2023-01-17T09:09:48.359Z,55.07
2023-01-17T09:12:37.080Z,44.93
2023-01-17T09:15:26.977Z,48.40
2023-01-17T09:18:15.417Z,62.20
2023-01-17T09:21:11.509Z,68.53
2023-01-17T09:24:00.096Z,67.33
2023-01-17T09:26:48.700Z,60.10
2023-01-17T09:29:37.277Z,82.33
2023-01-17T09:32:27.276Z,76.63
2023-01-17T09:35:18.366Z,67.57
2023-01-17T09:38:07.197Z,77.17
2023-01-17T09:40:55.680Z,71.10
2023-01-17T09:43:50.119Z,59.67
2023-01-17T09:46:42.316Z,64.77
2023-01-17T09:49:38.022Z,64.03
2023-01-17T09:52:27.865Z,52.40
2023-01-17T09:55:18.104Z,58.50
2023-01-17T09:58:13.149Z,68.30
2023-01-17T10:01:09.827Z,58.70
2023-01-17T10:04:13.216Z,59.87
2023-01-17T10:07:15.664Z,57.77
2023-01-17T10:10:20.549Z,60.13
2023-01-17T10:13:21.801Z,57.50
2023-01-17T10:16:25.801Z,79.43
2023-01-17T10:19:37.487Z,64.90
2023-01-17T10:22:42.986Z,63.50
2023-01-17T10:25:43.740Z,52.17
2023-01-17T10:28:36.663Z,57.07
2023-01-17T10:31:27.072Z,61.67
2023-01-17T10:34:20.717Z,74.93
2023-01-17T10:37:18.926Z,77.77
2023-01-17T10:40:18.787Z,82.37
2023-01-17T10:43:16.449Z,61.33
2023-01-17T10:46:05.245Z,57.37
2023-01-17T10:48:54.374Z,53.67
2023-01-17T10:52:01.364Z,50.90
2023-01-17T10:55:04.136Z,49.63
2023-01-17T10:57:54.916Z,56.90
2023-01-17T11:00:50.392Z,67.57
2023-01-17T11:03:39.451Z,58.67
2023-01-17T11:06:29.091Z,52.47
2023-01-17T11:09:17.653Z,50.17
2023-01-17T11:12:06.470Z,52.30
2023-01-17T11:15:04.123Z,76.70
2023-01-17T11:18:04.656Z,60.03
2023-01-17T11:20:53.183Z,47.90
2023-01-17T11:23:45.186Z,47.10
2023-01-17T11:26:37.148Z,49.87
2023-01-17T11:29:36.815Z,47.37
2023-01-17T11:32:34.806Z,51.40
2023-01-17T11:35:26.120Z,47.17
2023-01-17T11:38:20.451Z,49.63
2023-01-17T11:41:23.356Z,45.50
2023-01-17T11:44:28.239Z,48.40
2023-01-17T11:47:19.417Z,45.53
2023-01-17T11:50:25.008Z,40.23
2023-01-17T11:53:21.302Z,34.80
2023-01-17T11:56:12.175Z,42.10
2023-01-17T11:59:27.590Z,39.63
2023-01-17T12:02:51.790Z,42.03
2023-01-17T12:05:54.499Z,41.10
2023-01-17T12:08:56.558Z,39.17
2023-01-17T12:12:24.869Z,39.57
2023-01-17T12:15:30.219Z,31.57
2023-01-17T12:18:40.050Z,30.27
2023-01-17T12:21:38.881Z,28.53
2023-01-17T12:24:51.809Z,28.07
2023-01-17T12:27:49.636Z,29.00
2023-01-17T12:30:52.945Z,23.77
2023-01-17T12:33:48.598Z,26.90
2023-01-17T12:36:44.523Z,25.13
2023-01-17T12:39:38.268Z,25.73
2023-01-17T12:42:31.981Z,25.90
2023-01-17T12:45:25.566Z,26.70
2023-01-17T12:48:17.495Z,22.13
2023-01-17T12:51:14.165Z,22.73
2023-01-17T12:54:13.095Z,17.43
2023-01-17T12:57:07.146Z,21.27
2023-01-17T13:00:02.984Z,20.80
2023-01-17T13:02:58.222Z,23.17
2023-01-17T13:05:50.566Z,20.63
2023-01-17T13:08:46.448Z,18.80
2023-01-17T13:11:44.224Z,18.33
2023-01-17T13:14:33.398Z,21.53
2023-01-17T13:17:35.953Z,18.43
2023-01-17T13:20:31.816Z,24.83
2023-01-17T13:23:30.179Z,24.50
2023-01-17T13:26:30.767Z,16.77
2023-01-17T13:29:32.679Z,20.27
2023-01-17T13:32:43.253Z,16.17
2023-01-17T13:35:42.027Z,15.53
2023-01-17T13:38:57.688Z,13.63
2023-01-17T13:41:51.415Z,13.43
2023-01-17T13:44:41.316Z,10.37
2023-01-17T13:47:41.801Z,13.90
2023-01-17T13:50:51.150Z,10.83
2023-01-17T13:54:00.576Z,13.20
2023-01-17T13:56:49.076Z,13.03
2023-01-17T13:59:37.558Z,10.33
2023-01-17T14:02:42.285Z,9.43
2023-01-17T14:05:49.318Z,8.70
2023-01-17T14:08:45.069Z,6.20
2023-01-17T14:11:35.521Z,9.77
2023-01-17T14:14:52.115Z,6.73
2023-01-17T14:18:01.076Z,7.33
2023-01-17T14:21:05.562Z,9.63
2023-01-17T14:24:04.065Z,7.97
2023-01-17T14:26:58.943Z,8.40
2023-01-17T14:29:55.971Z,6.43
2023-01-17T14:33:08.712Z,8.23
2023-01-17T14:36:02.007Z,6.90
2023-01-17T14:38:50.513Z,11.30
2023-01-17T14:41:39.123Z,7.63
2023-01-17T14:44:28.194Z,7.10
2023-01-17T14:47:17.862Z,8.80
2023-01-17T14:50:21.696Z,9.37
2023-01-17T14:53:19.910Z,6.97
2023-01-17T14:56:15.925Z,6.67
2023-01-17T14:59:13.135Z,9.47
2023-01-17T15:02:07.921Z,6.70
2023-01-17T15:04:57.267Z,6.87
2023-01-17T15:07:48.614Z,6.87
2023-01-17T15:10:49.167Z,6.57
2023-01-17T15:13:44.712Z,8.40
2023-01-17T15:16:35.354Z,5.90
2023-01-17T15:19:24.420Z,5.63
2023-01-17T15:22:13.772Z,5.20
2023-01-17T15:25:02.758Z,6.27
2023-01-17T15:27:52.884Z,4.80
2023-01-17T15:31:06.945Z,5.40
2023-01-17T15:33:58.579Z,5.27
2023-01-17T15:36:49.807Z,5.63
2023-01-17T15:39:41.372Z,6.43
2023-01-17T15:42:32.366Z,14.90
2023-01-17T15:45:25.689Z,7.13
2023-01-17T15:48:41.858Z,8.90
2023-01-17T15:51:35.136Z,6.43
2023-01-17T15:54:36.820Z,6.90
2023-01-17T15:57:28.236Z,8.20
2023-01-17T16:00:26.370Z,8.87
2023-01-17T16:03:21.798Z,8.77
2023-01-17T16:06:30.856Z,8.37
2023-01-17T16:09:22.304Z,8.33
2023-01-17T16:12:10.816Z,8.30
2023-01-17T16:15:11.853Z,8.60
2023-01-17T16:18:06.533Z,8.83
2023-01-17T16:20:59.996Z,10.47
2023-01-17T16:23:48.836Z,10.83
2023-01-17T16:26:37.408Z,10.13
2023-01-17T16:29:25.994Z,10.50
2023-01-17T16:32:15.503Z,11.73
2023-01-17T16:35:07.621Z,8.97
2023-01-17T16:37:58.374Z,7.30
2023-01-17T16:40:47.649Z,8.30
2023-01-17T16:43:36.174Z,9.80
2023-01-17T16:46:25.769Z,8.80
2023-01-17T16:49:14.344Z,13.53
2023-01-17T16:52:04.488Z,11.47
2023-01-17T16:54:54.071Z,10.70
2023-01-17T16:57:42.905Z,10.70
2023-01-17T17:00:31.507Z,11.37
2023-01-17T17:03:22.015Z,10.17
2023-01-17T17:06:11.290Z,12.93
2023-01-17T17:09:01.625Z,9.33
2023-01-17T17:11:50.210Z,9.90
2023-01-17T17:14:38.712Z,10.40
2023-01-17T17:17:27.284Z,11.97
2023-01-17T17:20:17.568Z,8.87
2023-01-17T17:23:06.018Z,9.67
2023-01-17T17:25:58.641Z,9.83
2023-01-17T17:28:51.459Z,9.37
2023-01-17T17:31:42.341Z,11.07
2023-01-17T17:34:33.969Z,11.27
2023-01-17T17:37:23.584Z,11.50
2023-01-17T17:40:12.766Z,10.83
2023-01-17T17:43:02.860Z,11.53
2023-01-17T17:45:51.427Z,12.27
2023-01-17T17:48:39.983Z,10.50
2023-01-17T17:51:30.662Z,11.57
2023-01-17T17:54:20.068Z,10.67
2023-01-17T17:57:08.700Z,10.40
2023-01-17T17:59:59.842Z,11.27
2023-01-17T18:02:48.422Z,11.33
2023-01-17T18:05:37.034Z,11.03
2023-01-17T18:08:25.631Z,10.10
2023-01-17T18:11:18.554Z,13.63
2023-01-17T18:14:09.521Z,10.63
2023-01-17T18:16:59.391Z,11.23
2023-01-17T18:19:48.183Z,10.33
2023-01-17T18:22:36.720Z,11.30
2023-01-17T18:25:25.328Z,9.50
2023-01-17T18:28:13.924Z,9.30
2023-01-17T18:31:08.954Z,9.40
2023-01-17T18:34:00.633Z,8.80
2023-01-17T18:36:49.257Z,8.87
2023-01-17T18:39:37.748Z,9.97
2023-01-17T18:42:27.460Z,8.00
2023-01-17T18:45:16.065Z,8.37
2023-01-17T18:48:04.853Z,9.80
2023-01-17T18:50:59.021Z,6.67
2023-01-17T18:53:48.086Z,7.30
2023-01-17T18:56:37.117Z,8.83
2023-01-17T18:59:25.921Z,10.60
2023-01-17T19:02:14.596Z,9.33
2023-01-17T19:05:05.567Z,11.17
2023-01-17T19:07:55.857Z,9.43
2023-01-17T19:10:45.082Z,10.07
2023-01-17T19:13:33.943Z,9.23
2023-01-17T19:16:25.656Z,9.53
2023-01-17T19:19:16.026Z,9.57
2023-01-17T19:22:04.539Z,12.30
2023-01-17T19:24:54.924Z,12.93
2023-01-17T19:27:43.882Z,15.87
2023-01-17T19:30:34.374Z,15.87
2023-01-17T19:33:22.877Z,14.87
2023-01-17T19:36:13.499Z,20.40
2023-01-17T19:39:05.231Z,22.50
2023-01-17T19:41:55.453Z,17.93
2023-01-17T19:44:43.952Z,17.37
2023-01-17T19:47:32.568Z,15.47
2023-01-17T19:50:21.230Z,19.93
2023-01-17T19:53:09.711Z,18.93
2023-01-17T19:55:58.197Z,19.77
2023-01-17T19:58:48.979Z,17.83
2023-01-17T20:01:37.539Z,18.23
2023-01-17T20:04:26.081Z,18.40
2023-01-17T20:07:14.571Z,17.20
2023-01-17T20:10:03.202Z,17.27
2023-01-17T20:12:51.715Z,16.50
2023-01-17T20:15:41.562Z,16.40
2023-01-17T20:18:30.088Z,16.53
2023-01-17T20:21:20.293Z,15.90
2023-01-17T20:24:11.328Z,16.43
2023-01-17T20:26:59.874Z,14.93
2023-01-17T20:29:50.398Z,19.73
2023-01-17T20:32:40.273Z,16.80
2023-01-17T20:35:29.755Z,17.83
2023-01-17T20:38:18.448Z,19.13
2023-01-17T20:41:07.202Z,19.27
2023-01-17T20:43:58.065Z,21.07
2023-01-17T20:46:48.174Z,17.87
2023-01-17T20:49:38.240Z,19.47
2023-01-17T20:52:26.821Z,19.07
2023-01-17T20:55:15.560Z,17.57
2023-01-17T20:58:04.154Z,20.17
2023-01-17T21:00:53.150Z,16.77
2023-01-17T21:03:42.385Z,17.57
2023-01-17T21:06:32.361Z,17.53
2023-01-17T21:09:22.147Z,23.97
2023-01-17T21:12:10.576Z,35.20
2023-01-17T21:14:59.075Z,28.83
2023-01-17T21:17:47.520Z,21.40
2023-01-17T21:20:36.465Z,20.40
2023-01-17T21:23:29.312Z,17.03
2023-01-17T21:26:19.045Z,17.10
2023-01-17T21:29:07.597Z,17.03
2023-01-17T21:31:56.530Z,19.60
2023-01-17T21:34:45.014Z,21.43
2023-01-17T21:37:33.500Z,16.97
2023-01-17T21:40:23.344Z,19.57
2023-01-17T21:43:12.665Z,17.87
2023-01-17T21:46:04.686Z,16.93
2023-01-17T21:48:53.580Z,20.97
2023-01-17T21:51:59.647Z,20.43
2023-01-17T21:55:05.705Z,22.00
2023-01-17T21:58:12.946Z,20.27
2023-01-17T22:01:15.726Z,22.40
2023-01-17T22:04:05.262Z,20.80
2023-01-17T22:06:53.752Z,19.83
2023-01-17T22:09:42.411Z,19.73
2023-01-17T22:12:30.885Z,19.33
2023-01-17T22:15:20.701Z,18.27
2023-01-17T22:18:09.800Z,18.97
2023-01-17T22:20:58.684Z,17.53
2023-01-17T22:23:48.229Z,19.27
2023-01-17T22:26:36.814Z,19.00
2023-01-17T22:29:25.408Z,20.17
2023-01-17T22:32:15.256Z,22.67
2023-01-17T22:35:06.720Z,19.63
2023-01-17T22:37:55.456Z,22.33
2023-01-17T22:40:44.012Z,21.63
2023-01-17T22:43:32.507Z,24.23
2023-01-17T22:46:24.966Z,18.67
2023-01-17T22:49:16.923Z,20.03
2023-01-17T22:52:05.816Z,19.47
2023-01-17T22:54:54.373Z,19.67
2023-01-17T22:57:45.855Z,20.90
2023-01-17T23:00:34.320Z,23.27
2023-01-17T23:03:22.859Z,16.73
2023-01-17T23:06:15.210Z,17.63
2023-01-17T23:09:07.067Z,17.13
2023-01-17T23:11:56.351Z,18.07
2023-01-17T23:15:02.332Z,18.20
2023-01-17T23:18:04.760Z,20.77
2023-01-17T23:20:53.246Z,17.67
2023-01-17T23:23:43.155Z,18.00
2023-01-17T23:26:31.631Z,15.37
2023-01-17T23:29:19.247Z,19.97
2023-01-17T23:32:07.780Z,17.87
2023-01-17T23:34:56.299Z,19.70
2023-01-17T23:37:58.717Z,14.40
2023-01-17T23:41:09.664Z,14.80
2023-01-17T23:43:58.695Z,14.87
2023-01-17T23:46:47.198Z,14.60
2023-01-17T23:49:35.836Z,14.67
2023-01-17T23:52:24.373Z,16.53
2023-01-17T23:55:13.634Z,14.97
2023-01-17T23:58:03.657Z,15.50
